createdAt,value
2022-12-23T00:01:23.496Z,8.84
2022-12-23T00:03:52.018Z,9.07
2022-12-23T00:06:20.741Z,9.10
2022-12-23T00:08:48.229Z,9.31
2022-12-23T00:11:20.594Z,9.17
2022-12-23T00:14:06.628Z,8.69
2022-12-23T00:16:37.561Z,8.74
2022-12-23T00:19:05.633Z,9.04
2022-12-23T00:21:33.784Z,8.84
2022-12-23T00:24:01.318Z,8.59
2022-12-23T00:26:28.634Z,9.56
2022-12-23T00:28:58.076Z,9.51
2022-12-23T00:31:25.841Z,9.62
2022-12-23T00:33:55.913Z,9.45
2022-12-23T00:36:30.081Z,8.72
2022-12-23T00:39:18.353Z,9.39
2022-12-23T00:42:04.504Z,9.17
2022-12-23T00:44:32.659Z,9.04
2022-12-23T00:46:59.842Z,8.64
2022-12-23T00:49:42.672Z,8.84
2022-12-23T00:52:13.234Z,9.32
2022-12-23T00:54:41.215Z,9.87
2022-12-23T00:57:08.433Z,9.09
2022-12-23T00:59:36.244Z,9.45
2022-12-23T01:02:22.846Z,10.18
2022-12-23T01:05:09.078Z,10.65
2022-12-23T01:07:36.301Z,11.09
2022-12-23T01:10:04.350Z,10.81
2022-12-23T01:12:31.462Z,10.65
2022-12-23T01:14:59.053Z,10.86
2022-12-23T01:17:26.213Z,11.18
2022-12-23T01:19:53.706Z,10.65
2022-12-23T01:22:20.866Z,11.29
2022-12-23T01:24:48.431Z,11.86
2022-12-23T01:27:15.633Z,11.98
2022-12-23T01:29:43.243Z,11.88
2022-12-23T01:32:10.454Z,11.71
2022-12-23T01:34:38.013Z,11.81
2022-12-23T01:37:05.770Z,12.61
2022-12-23T01:39:33.331Z,12.89
2022-12-23T01:42:19.239Z,13.40
2022-12-23T01:45:00.201Z,13.37
2022-12-23T01:47:42.048Z,13.88
2022-12-23T01:50:22.095Z,14.00
2022-12-23T01:53:18.622Z,14.25
2022-12-23T01:56:12.919Z,14.10
2022-12-23T01:58:45.641Z,13.51
2022-12-23T02:01:32.737Z,13.44
2022-12-23T02:04:06.758Z,12.95
2022-12-23T02:07:01.521Z,12.90
2022-12-23T02:09:34.971Z,12.17
2022-12-23T02:12:26.721Z,11.79
2022-12-23T02:15:35.345Z,12.30
2022-12-23T02:18:30.989Z,12.66
2022-12-23T02:21:20.852Z,12.38
2022-12-23T02:24:33.009Z,11.82
2022-12-23T02:27:06.115Z,11.71
2022-12-23T02:29:52.626Z,11.10
2022-12-23T02:32:41.985Z,11.08
2022-12-23T02:35:36.151Z,11.23
2022-12-23T02:38:12.173Z,11.63
2022-12-23T02:41:05.638Z,11.72
2022-12-23T02:43:40.333Z,11.88
2022-12-23T02:46:18.413Z,12.48
2022-12-23T02:49:03.611Z,12.31
2022-12-23T02:51:36.980Z,12.40
2022-12-23T02:54:08.496Z,12.48
2022-12-23T02:56:39.928Z,12.83
2022-12-23T02:59:15.880Z,12.69
2022-12-23T03:01:45.154Z,13.16
2022-12-23T03:04:12.471Z,12.80
2022-12-23T03:06:45.244Z,13.28
2022-12-23T03:09:24.975Z,13.33
2022-12-23T03:12:11.180Z,13.30
2022-12-23T03:15:05.284Z,12.87
2022-12-23T03:17:52.269Z,12.48
2022-12-23T03:20:25.811Z,12.99
2022-12-23T03:23:09.274Z,12.87
2022-12-23T03:25:47.267Z,12.80
2022-12-23T03:28:25.671Z,12.72
2022-12-23T03:30:57.597Z,12.35
2022-12-23T03:33:34.413Z,12.71
2022-12-23T03:36:11.974Z,12.88
2022-12-23T03:38:42.333Z,12.84
2022-12-23T03:41:19.773Z,12.64
2022-12-23T03:44:02.085Z,12.53
2022-12-23T03:46:36.343Z,12.78
2022-12-23T03:49:09.452Z,12.61
2022-12-23T03:51:53.265Z,13.00
2022-12-23T03:54:27.797Z,12.73
2022-12-23T03:57:02.311Z,13.05
2022-12-23T03:59:40.254Z,12.38
2022-12-23T04:02:21.707Z,12.77
2022-12-23T04:05:01.619Z,12.54
2022-12-23T04:07:38.563Z,12.38
2022-12-23T04:10:07.903Z,12.03
2022-12-23T04:12:35.128Z,12.18
2022-12-23T04:15:07.480Z,11.65
2022-12-23T04:17:37.965Z,11.85
2022-12-23T04:20:06.902Z,12.56
2022-12-23T04:22:34.044Z,12.75
2022-12-23T04:25:01.579Z,12.82
2022-12-23T04:27:28.799Z,12.76
2022-12-23T04:29:56.383Z,13.09
2022-12-23T04:32:23.820Z,13.09
2022-12-23T04:34:51.283Z,12.92
2022-12-23T04:37:18.445Z,12.72
2022-12-23T04:39:46.167Z,12.90
2022-12-23T04:42:13.295Z,12.52
2022-12-23T04:44:40.916Z,12.65
2022-12-23T04:47:08.352Z,12.65
2022-12-23T04:49:35.903Z,12.75
2022-12-23T04:52:03.179Z,12.77
2022-12-23T04:54:30.787Z,12.77
2022-12-23T04:56:57.957Z,12.83
2022-12-23T04:59:25.570Z,12.46
2022-12-23T05:01:53.011Z,12.14
2022-12-23T05:04:20.737Z,12.31
2022-12-23T05:06:47.991Z,12.39
2022-12-23T05:09:15.697Z,12.83
2022-12-23T05:11:43.049Z,13.07
2022-12-23T05:14:11.933Z,13.10
2022-12-23T05:16:39.375Z,13.35
2022-12-23T05:19:10.268Z,13.47
2022-12-23T05:21:37.690Z,13.62
2022-12-23T05:24:05.431Z,13.73
2022-12-23T05:26:32.677Z,13.21
2022-12-23T05:29:00.216Z,13.61
2022-12-23T05:31:27.541Z,13.70
2022-12-23T05:33:56.042Z,13.85
2022-12-23T05:36:25.612Z,14.08
2022-12-23T05:38:53.423Z,14.14
2022-12-23T05:41:20.623Z,14.17
2022-12-23T05:43:48.127Z,14.17
2022-12-23T05:46:16.264Z,14.28
2022-12-23T05:48:46.479Z,14.34
2022-12-23T05:51:13.820Z,14.30
2022-12-23T05:53:41.648Z,14.54
2022-12-23T05:56:09.047Z,14.68
2022-12-23T05:58:36.530Z,14.78
2022-12-23T06:01:04.200Z,14.59
2022-12-23T06:03:31.856Z,14.66
2022-12-23T06:05:59.142Z,14.64
2022-12-23T06:08:27.079Z,13.44
2022-12-23T06:10:54.384Z,14.11
2022-12-23T06:13:24.708Z,14.15
2022-12-23T06:15:51.978Z,14.32
2022-12-23T06:18:19.636Z,14.12
2022-12-23T06:20:47.940Z,14.31
2022-12-23T06:23:15.707Z,14.48
2022-12-23T06:25:42.847Z,14.58
2022-12-23T06:28:10.417Z,14.58
2022-12-23T06:30:37.672Z,14.66
2022-12-23T06:33:05.265Z,14.60
2022-12-23T06:35:32.498Z,14.52
2022-12-23T06:38:00.298Z,14.63
2022-12-23T06:40:29.410Z,14.74
2022-12-23T06:42:57.085Z,14.85
2022-12-23T06:45:24.833Z,14.82
2022-12-23T06:47:52.374Z,14.87
2022-12-23T06:50:19.607Z,14.53
2022-12-23T06:52:47.265Z,14.27
2022-12-23T09:28:18.867Z,18.70
2022-12-23T09:30:46.663Z,17.43
2022-12-23T09:33:14.122Z,17.23
2022-12-23T09:35:41.786Z,17.10
2022-12-23T09:38:09.454Z,16.24
2022-12-23T09:40:39.202Z,15.64
2022-12-23T09:43:40.394Z,15.92
2022-12-23T09:46:20.728Z,16.40
2022-12-23T09:49:11.323Z,15.46
2022-12-23T09:51:39.239Z,15.66
2022-12-23T09:54:23.360Z,16.35
2022-12-23T09:57:03.345Z,16.63
2022-12-23T09:59:49.339Z,16.46
2022-12-23T10:02:27.256Z,15.93
2022-12-23T10:11:46.495Z,9.60
2022-12-23T10:14:34.511Z,9.01
2022-12-23T10:17:17.757Z,8.52
2022-12-23T10:19:48.536Z,8.56
2022-12-23T10:22:20.676Z,8.53
2022-12-23T10:24:49.051Z,7.70
2022-12-23T10:27:31.582Z,7.83
2022-12-23T10:30:19.912Z,7.74
2022-12-23T10:33:05.393Z,7.91
2022-12-23T10:35:44.618Z,7.49
2022-12-23T10:38:47.325Z,7.53
2022-12-23T10:41:21.130Z,7.78
2022-12-23T10:44:09.072Z,7.45
2022-12-23T10:46:49.366Z,7.39
2022-12-23T10:49:31.773Z,6.63
2022-12-23T10:52:04.063Z,7.37
2022-12-23T10:54:36.127Z,6.70
2022-12-23T10:57:06.684Z,7.84
2022-12-23T10:59:36.657Z,7.20
2022-12-23T11:13:35.403Z,7.69
2022-12-23T11:16:21.588Z,7.91
2022-12-23T11:18:56.428Z,7.74
2022-12-23T11:21:24.143Z,7.74
2022-12-23T11:24:09.784Z,8.32
2022-12-23T11:26:37.443Z,8.34
2022-12-23T11:29:09.651Z,8.48
2022-12-23T11:31:37.988Z,7.98
2022-12-23T11:34:13.734Z,8.16
2022-12-23T11:36:41.977Z,8.36
2022-12-23T11:39:24.275Z,8.15
2022-12-23T11:41:56.603Z,8.97
2022-12-23T11:44:26.453Z,8.26
2022-12-23T11:46:55.050Z,8.95
2022-12-23T11:49:22.154Z,9.29
2022-12-23T11:52:14.183Z,9.39
2022-12-23T11:54:54.278Z,9.64
2022-12-23T11:57:32.597Z,10.28
2022-12-23T12:00:04.468Z,11.10
2022-12-23T12:05:49.345Z,10.90
2022-12-23T12:08:36.106Z,10.88
2022-12-23T12:11:12.159Z,10.49
2022-12-23T12:13:42.704Z,10.35
2022-12-23T12:16:28.481Z,10.43
2022-12-23T12:19:00.941Z,9.26
2022-12-23T12:21:33.408Z,9.18
2022-12-23T12:24:18.185Z,9.14
2022-12-23T12:26:51.529Z,8.95
2022-12-23T12:29:36.179Z,8.82
2022-12-23T12:32:07.830Z,8.78
2022-12-23T12:35:06.387Z,8.14
2022-12-23T12:37:48.073Z,8.76
2022-12-23T12:40:50.095Z,7.84
2022-12-23T12:43:31.945Z,7.78
2022-12-23T12:46:21.034Z,7.74
2022-12-23T12:48:48.135Z,7.65
2022-12-23T12:51:34.101Z,6.56
2022-12-23T12:54:33.570Z,7.17
2022-12-23T12:57:02.569Z,7.48
2022-12-23T12:59:37.158Z,7.12
2022-12-23T13:02:26.391Z,6.77
2022-12-23T13:05:30.442Z,7.77
2022-12-23T13:08:13.223Z,7.66
2022-12-23T13:10:45.370Z,7.03
2022-12-23T13:13:19.268Z,7.14
2022-12-23T13:16:04.684Z,6.40
2022-12-23T13:18:55.218Z,6.37
2022-12-23T13:21:25.523Z,6.07
2022-12-23T13:24:01.915Z,6.34
2022-12-23T13:26:46.090Z,6.39
2022-12-23T13:29:32.450Z,6.38
2022-12-23T13:32:15.553Z,5.87
2022-12-23T13:35:41.113Z,5.80
2022-12-23T13:38:54.638Z,5.32
2022-12-23T13:41:35.051Z,4.99
2022-12-23T13:44:05.649Z,5.42
2022-12-23T13:46:45.774Z,4.81
2022-12-23T13:49:31.172Z,4.63
2022-12-23T13:52:29.635Z,4.53
2022-12-23T13:55:10.900Z,4.29
2022-12-23T13:58:01.696Z,4.84
2022-12-23T14:00:34.543Z,4.68
2022-12-23T14:03:02.218Z,3.87
2022-12-23T14:05:36.032Z,4.74
2022-12-23T14:08:19.951Z,4.75
2022-12-23T14:11:29.993Z,4.32
2022-12-23T14:14:05.313Z,4.08
2022-12-23T14:16:41.796Z,4.63
2022-12-23T14:19:35.542Z,4.71
2022-12-23T14:22:14.005Z,4.85
2022-12-23T14:24:53.251Z,5.07
2022-12-23T14:27:45.966Z,4.77
2022-12-23T14:30:21.606Z,5.47
2022-12-23T14:32:52.395Z,5.51
2022-12-23T14:35:36.992Z,5.61
2022-12-23T14:38:15.246Z,5.36
2022-12-23T14:40:42.840Z,5.02
2022-12-23T14:43:26.832Z,5.13
2022-12-23T14:46:00.021Z,5.43
2022-12-23T14:48:42.040Z,5.64
2022-12-23T14:51:09.598Z,5.53
2022-12-23T14:53:57.956Z,6.08
2022-12-23T14:56:40.656Z,6.10
2022-12-23T14:59:27.365Z,6.33
2022-12-23T15:02:14.897Z,6.47
2022-12-23T15:04:53.347Z,5.95
2022-12-23T15:07:35.381Z,6.47
2022-12-23T15:10:07.072Z,6.47
2022-12-23T15:12:43.408Z,6.76
2022-12-23T15:15:20.643Z,6.35
2022-12-23T15:17:49.437Z,6.64
2022-12-23T15:20:21.159Z,6.55
2022-12-23T15:22:49.562Z,6.66
2022-12-23T15:25:27.986Z,6.38
2022-12-23T15:28:01.533Z,6.06
2022-12-23T15:30:37.742Z,6.02
2022-12-23T15:33:34.780Z,6.21
2022-12-23T15:35:57.070Z,5.88
2022-12-23T15:38:33.511Z,5.88
2022-12-23T15:41:13.114Z,4.83
2022-12-23T15:43:42.136Z,5.44
2022-12-23T15:46:18.276Z,5.46
2022-12-23T15:48:49.237Z,4.94
2022-12-23T15:51:42.679Z,5.56
2022-12-23T15:54:14.793Z,4.76
2022-12-23T15:56:48.780Z,4.73
2022-12-23T15:59:33.362Z,4.24
2022-12-23T16:02:32.600Z,4.19
2022-12-23T16:05:00.890Z,4.17
2022-12-23T16:07:35.818Z,4.20
2022-12-23T16:10:20.467Z,3.69
2022-12-23T16:12:51.947Z,4.10
2022-12-23T16:15:21.744Z,4.03
2022-12-23T16:17:49.144Z,4.41
2022-12-23T16:20:22.213Z,4.54
2022-12-23T16:22:53.362Z,4.33
2022-12-23T16:25:26.223Z,3.63
2022-12-23T16:27:56.304Z,3.41
2022-12-23T16:30:35.940Z,3.94
2022-12-23T16:33:21.559Z,4.83
2022-12-23T16:35:49.148Z,5.09
2022-12-23T16:38:24.682Z,5.33
2022-12-23T16:40:57.215Z,5.26
2022-12-23T16:43:25.807Z,4.36
2022-12-23T16:45:56.187Z,5.37
2022-12-23T16:48:31.236Z,5.19
2022-12-23T16:51:00.268Z,5.13
2022-12-23T16:53:28.086Z,5.66
2022-12-23T16:56:00.620Z,5.27
2022-12-23T16:58:29.335Z,5.34
2022-12-23T17:04:18.005Z,4.75
2022-12-23T17:06:46.790Z,4.17
2022-12-23T17:09:14.259Z,5.05
2022-12-23T17:11:53.621Z,5.30
2022-12-23T17:14:23.607Z,5.15
2022-12-23T17:16:51.993Z,5.34
2022-12-23T17:19:25.599Z,6.07
2022-12-23T17:22:01.677Z,5.56
2022-12-23T17:24:29.021Z,5.99
2022-12-23T17:26:57.454Z,5.94
2022-12-23T17:29:25.016Z,6.08
2022-12-23T17:31:53.169Z,5.32
2022-12-23T17:34:24.519Z,5.69
2022-12-23T17:36:52.894Z,5.30
2022-12-23T17:39:21.788Z,5.48
2022-12-23T17:41:49.822Z,5.85
2022-12-23T17:44:19.066Z,6.32
2022-12-23T17:46:47.089Z,6.47
2022-12-23T17:49:14.435Z,6.62
2022-12-23T17:51:42.674Z,6.72
2022-12-23T17:54:30.355Z,7.26
2022-12-23T17:56:57.828Z,6.36
2022-12-23T17:59:24.931Z,6.83
2022-12-23T18:01:52.855Z,6.15
2022-12-23T18:04:20.089Z,6.49
2022-12-23T18:06:47.548Z,6.30
2022-12-23T18:09:15.202Z,5.09
2022-12-23T18:11:45.548Z,5.84
2022-12-23T18:14:29.469Z,5.80
2022-12-23T18:16:57.102Z,6.45
2022-12-23T18:19:24.380Z,5.98
2022-12-23T18:21:52.617Z,5.94
2022-12-23T18:24:19.779Z,5.66
2022-12-23T18:26:47.826Z,6.38
2022-12-23T18:29:15.176Z,5.65
2022-12-23T18:31:51.194Z,5.99
2022-12-23T18:34:20.225Z,6.33
2022-12-23T18:36:48.713Z,5.81
2022-12-23T18:39:15.944Z,5.92
2022-12-23T18:41:43.914Z,5.84
2022-12-23T18:44:19.556Z,5.78
2022-12-23T18:46:48.327Z,5.86
2022-12-23T18:49:15.642Z,6.34
2022-12-23T18:51:43.174Z,5.92
2022-12-23T18:54:15.148Z,6.60
2022-12-23T18:56:43.330Z,6.86
2022-12-23T18:59:27.449Z,6.53
2022-12-23T19:01:57.502Z,6.80
2022-12-23T19:04:25.155Z,6.45
2022-12-23T19:06:52.933Z,6.47
2022-12-23T19:09:22.379Z,6.77
2022-12-23T19:11:52.471Z,7.05
2022-12-23T19:14:19.611Z,7.24
2022-12-23T19:16:51.457Z,7.25
2022-12-23T19:19:20.304Z,7.61
2022-12-23T19:21:47.910Z,7.68
2022-12-23T19:24:15.079Z,7.79
2022-12-23T19:26:42.563Z,7.68
2022-12-23T19:29:10.004Z,7.85
2022-12-23T19:31:37.545Z,8.08
2022-12-23T19:34:08.280Z,7.96
2022-12-23T19:36:40.452Z,7.99
2022-12-23T19:39:16.639Z,8.10
2022-12-23T19:41:45.547Z,8.36
2022-12-23T19:44:12.848Z,8.50
2022-12-23T19:46:40.414Z,8.13
2022-12-23T19:49:07.805Z,8.44
2022-12-23T19:51:35.327Z,8.53
2022-12-23T19:54:02.514Z,8.53
2022-12-23T19:56:30.719Z,8.14
2022-12-23T19:58:57.878Z,8.41
2022-12-23T20:01:26.938Z,8.69
2022-12-23T20:03:56.034Z,8.87
2022-12-23T20:06:29.752Z,9.05
2022-12-23T20:09:00.824Z,9.11
2022-12-23T20:11:31.013Z,9.07
2022-12-23T20:13:59.146Z,9.13
2022-12-23T20:16:27.597Z,9.25
2022-12-23T20:18:55.303Z,9.20
2022-12-23T20:21:23.612Z,9.02
2022-12-23T20:23:50.821Z,8.61
2022-12-23T20:26:19.226Z,8.19
2022-12-23T20:28:46.947Z,8.63
2022-12-23T20:31:15.785Z,8.68
2022-12-23T20:33:43.312Z,8.50
2022-12-23T20:36:14.105Z,8.57
2022-12-23T20:38:42.749Z,8.38
2022-12-23T20:41:13.973Z,8.32
2022-12-23T20:43:42.572Z,8.24
2022-12-23T20:46:12.945Z,8.20
2022-12-23T20:48:41.266Z,7.97
2022-12-23T20:51:13.130Z,8.15
2022-12-23T20:53:40.504Z,8.39
2022-12-23T20:56:12.661Z,8.53
2022-12-23T20:58:55.514Z,8.60
2022-12-23T21:01:27.761Z,8.35
2022-12-23T21:03:57.732Z,7.18
2022-12-23T21:06:26.638Z,7.42
2022-12-23T21:08:55.912Z,7.50
2022-12-23T21:11:23.792Z,7.94
2022-12-23T21:13:51.931Z,7.67
2022-12-23T21:16:19.761Z,8.21
2022-12-23T21:18:53.481Z,8.40
2022-12-23T21:21:23.835Z,7.35
2022-12-23T21:23:50.979Z,7.79
2022-12-23T21:26:21.030Z,8.28
2022-12-23T21:28:49.689Z,8.46
2022-12-23T21:31:20.461Z,8.62
2022-12-23T21:33:49.420Z,8.64
2022-12-23T21:36:20.515Z,8.63
2022-12-23T21:38:49.906Z,8.72
2022-12-23T21:41:22.590Z,8.77
2022-12-23T21:43:50.584Z,8.85
2022-12-23T21:46:21.355Z,8.77
2022-12-23T21:48:49.954Z,8.92
2022-12-23T21:51:23.264Z,8.88
2022-12-23T21:53:55.805Z,9.00
2022-12-23T21:56:27.323Z,9.07
2022-12-23T21:59:14.592Z,8.97
2022-12-23T22:01:43.259Z,9.31
2022-12-23T22:04:10.648Z,3.86
2022-12-23T22:06:40.713Z,4.12
2022-12-23T22:09:08.604Z,4.10
2022-12-23T22:11:37.566Z,4.77
2022-12-23T22:14:07.595Z,4.22
2022-12-23T22:16:36.189Z,4.05
2022-12-23T22:19:05.011Z,5.79
2022-12-23T22:21:33.845Z,6.97
2022-12-23T22:24:02.625Z,7.45
2022-12-23T22:26:32.551Z,7.95
2022-12-23T22:29:01.658Z,8.29
2022-12-23T22:31:40.137Z,8.48
2022-12-23T22:34:08.869Z,8.74
2022-12-23T22:36:36.705Z,8.84
2022-12-23T22:39:05.332Z,8.99
2022-12-23T22:41:34.971Z,9.10
2022-12-23T22:44:02.122Z,9.16
2022-12-23T22:46:30.338Z,7.54
2022-12-23T22:48:59.053Z,7.78
2022-12-23T22:51:29.724Z,8.35
2022-12-23T22:53:58.510Z,8.45
2022-12-23T22:56:27.101Z,7.49
2022-12-23T22:58:55.139Z,7.83
2022-12-23T23:04:06.052Z,9.00
2022-12-23T23:06:38.182Z,8.68
2022-12-23T23:09:07.848Z,8.48
2022-12-23T23:11:35.715Z,8.78
2022-12-23T23:14:03.140Z,8.81
2022-12-23T23:16:30.757Z,8.52
2022-12-23T23:18:59.324Z,8.55
2022-12-23T23:21:27.290Z,8.55
2022-12-23T23:23:54.403Z,8.64
2022-12-23T23:26:26.870Z,8.50
2022-12-23T23:28:55.002Z,8.53
2022-12-23T23:34:10.385Z,8.56
2022-12-23T23:36:38.162Z,8.57
2022-12-23T23:39:07.743Z,8.67
2022-12-23T23:41:36.059Z,8.68
2022-12-23T23:44:03.356Z,8.54
2022-12-23T23:46:31.999Z,8.65
2022-12-23T23:48:59.607Z,8.74
2022-12-23T23:51:27.170Z,7.67
2022-12-23T23:53:54.375Z,7.82
2022-12-23T23:56:25.799Z,6.76
2022-12-23T23:58:54.408Z,6.01
